sensor_id;sensor_type;location;lat;lon;timestamp;P1;durP1;ratioP1;P2;durP2;ratioP2
53203;SDS011;39086;54.424;18.456;2023-08-12T00:00:06;5.77;;;3.80;;
53203;SDS011;39086;54.424;18.456;2023-08-12T00:01:14;8.37;;;4.53;;
53203;SDS011;39086;54.424;18.456;2023-08-12T00:02:18;7.93;;;4.27;;
53203;SDS011;39086;54.424;18.456;2023-08-12T00:03:20;9.47;;;3.80;;
53203;SDS011;39086;54.424;18.456;2023-08-12T00:04:24;6.97;;;4.07;;
53203;SDS011;39086;54.424;18.456;2023-08-12T00:05:26;7.13;;;3.97;;
53203;SDS011;39086;54.424;18.456;2023-08-12T00:06:30;7.27;;;3.70;;
53203;SDS011;39086;54.424;18.456;2023-08-12T00:07:32;9.00;;;3.87;;
53203;SDS011;39086;54.424;18.456;2023-08-12T00:08:36;7.70;;;4.00;;
53203;SDS011;39086;54.424;18.456;2023-08-12T00:09:38;5.10;;;4.00;;
53203;SDS011;39086;54.424;18.456;2023-08-12T00:10:42;7.30;;;3.77;;
53203;SDS011;39086;54.424;18.456;2023-08-12T00:11:44;5.80;;;3.43;;
53203;SDS011;39086;54.424;18.456;2023-08-12T00:12:48;7.70;;;4.03;;
53203;SDS011;39086;54.424;18.456;2023-08-12T00:13:50;6.47;;;4.13;;
53203;SDS011;39086;54.424;18.456;2023-08-12T00:14:53;5.97;;;3.90;;
53203;SDS011;39086;54.424;18.456;2023-08-12T00:15:56;11.33;;;4.17;;
53203;SDS011;39086;54.424;18.456;2023-08-12T00:17:01;9.50;;;4.10;;
53203;SDS011;39086;54.424;18.456;2023-08-12T00:18:04;5.53;;;3.63;;
53203;SDS011;39086;54.424;18.456;2023-08-12T00:19:08;10.20;;;3.90;;
53203;SDS011;39086;54.424;18.456;2023-08-12T00:20:10;5.53;;;3.93;;
53203;SDS011;39086;54.424;18.456;2023-08-12T00:21:14;8.13;;;3.73;;
53203;SDS011;39086;54.424;18.456;2023-08-12T00:22:16;5.03;;;3.60;;
53203;SDS011;39086;54.424;18.456;2023-08-12T00:23:20;6.67;;;4.17;;
53203;SDS011;39086;54.424;18.456;2023-08-12T00:24:22;8.87;;;4.17;;
53203;SDS011;39086;54.424;18.456;2023-08-12T00:25:25;7.87;;;3.77;;
53203;SDS011;39086;54.424;18.456;2023-08-12T00:26:28;4.47;;;3.43;;
53203;SDS011;39086;54.424;18.456;2023-08-12T00:27:31;6.93;;;3.87;;
53203;SDS011;39086;54.424;18.456;2023-08-12T00:28:33;8.00;;;3.83;;
53203;SDS011;39086;54.424;18.456;2023-08-12T00:29:37;8.57;;;3.93;;
53203;SDS011;39086;54.424;18.456;2023-08-12T00:30:39;9.40;;;3.77;;
53203;SDS011;39086;54.424;18.456;2023-08-12T00:31:43;6.83;;;3.60;;
53203;SDS011;39086;54.424;18.456;2023-08-12T00:32:46;5.33;;;3.60;;
53203;SDS011;39086;54.424;18.456;2023-08-12T00:33:50;4.87;;;3.90;;
53203;SDS011;39086;54.424;18.456;2023-08-12T00:34:52;5.93;;;3.70;;
53203;SDS011;39086;54.424;18.456;2023-08-12T00:35:55;10.03;;;4.17;;
53203;SDS011;39086;54.424;18.456;2023-08-12T00:36:58;8.20;;;3.87;;
53203;SDS011;39086;54.424;18.456;2023-08-12T00:38:00;7.93;;;3.97;;
53203;SDS011;39086;54.424;18.456;2023-08-12T00:39:04;9.17;;;4.30;;
53203;SDS011;39086;54.424;18.456;2023-08-12T00:40:08;9.60;;;3.50;;
53203;SDS011;39086;54.424;18.456;2023-08-12T00:41:11;10.90;;;4.23;;
53203;SDS011;39086;54.424;18.456;2023-08-12T00:42:14;9.93;;;3.90;;
53203;SDS011;39086;54.424;18.456;2023-08-12T00:43:17;6.17;;;3.57;;
53203;SDS011;39086;54.424;18.456;2023-08-12T00:44:19;7.87;;;3.80;;
53203;SDS011;39086;54.424;18.456;2023-08-12T00:45:23;6.50;;;3.83;;
53203;SDS011;39086;54.424;18.456;2023-08-12T00:46:26;6.17;;;3.40;;
53203;SDS011;39086;54.424;18.456;2023-08-12T00:47:29;6.70;;;3.67;;
53203;SDS011;39086;54.424;18.456;2023-08-12T00:48:33;10.60;;;4.00;;
53203;SDS011;39086;54.424;18.456;2023-08-12T00:49:37;7.67;;;4.13;;
53203;SDS011;39086;54.424;18.456;2023-08-12T00:50:41;9.77;;;3.60;;
53203;SDS011;39086;54.424;18.456;2023-08-12T00:51:44;6.10;;;3.63;;
53203;SDS011;39086;54.424;18.456;2023-08-12T00:52:47;8.97;;;3.67;;
53203;SDS011;39086;54.424;18.456;2023-08-12T00:53:51;6.67;;;3.63;;
53203;SDS011;39086;54.424;18.456;2023-08-12T00:54:53;6.97;;;3.57;;
53203;SDS011;39086;54.424;18.456;2023-08-12T00:55:56;6.70;;;4.17;;
53203;SDS011;39086;54.424;18.456;2023-08-12T00:56:59;6.93;;;4.10;;
53203;SDS011;39086;54.424;18.456;2023-08-12T00:58:02;6.00;;;3.70;;
53203;SDS011;39086;54.424;18.456;2023-08-12T00:59:06;9.07;;;3.70;;
53203;SDS011;39086;54.424;18.456;2023-08-12T01:00:10;9.23;;;3.83;;
53203;SDS011;39086;54.424;18.456;2023-08-12T01:01:13;7.90;;;3.67;;
53203;SDS011;39086;54.424;18.456;2023-08-12T01:02:19;7.10;;;3.67;;
53203;SDS011;39086;54.424;18.456;2023-08-12T01:03:21;8.00;;;3.97;;
53203;SDS011;39086;54.424;18.456;2023-08-12T01:04:26;5.33;;;3.50;;
53203;SDS011;39086;54.424;18.456;2023-08-12T01:05:29;8.40;;;4.03;;
53203;SDS011;39086;54.424;18.456;2023-08-12T01:06:32;7.27;;;4.13;;
53203;SDS011;39086;54.424;18.456;2023-08-12T01:07:35;7.67;;;3.60;;
53203;SDS011;39086;54.424;18.456;2023-08-12T01:08:38;10.30;;;3.83;;
53203;SDS011;39086;54.424;18.456;2023-08-12T01:09:41;6.53;;;3.90;;
53203;SDS011;39086;54.424;18.456;2023-08-12T01:10:46;9.20;;;3.97;;
53203;SDS011;39086;54.424;18.456;2023-08-12T01:11:54;10.03;;;4.67;;
53203;SDS011;39086;54.424;18.456;2023-08-12T01:12:59;9.07;;;4.23;;
53203;SDS011;39086;54.424;18.456;2023-08-12T01:14:04;9.87;;;4.57;;
53203;SDS011;39086;54.424;18.456;2023-08-12T01:15:08;7.13;;;4.30;;
53203;SDS011;39086;54.424;18.456;2023-08-12T01:16:13;6.10;;;3.70;;
53203;SDS011;39086;54.424;18.456;2023-08-12T01:17:17;7.03;;;4.13;;
53203;SDS011;39086;54.424;18.456;2023-08-12T01:18:21;9.73;;;4.60;;
53203;SDS011;39086;54.424;18.456;2023-08-12T01:19:29;5.67;;;3.73;;
53203;SDS011;39086;54.424;18.456;2023-08-12T01:20:32;8.47;;;4.17;;
53203;SDS011;39086;54.424;18.456;2023-08-12T01:21:35;5.80;;;3.60;;
53203;SDS011;39086;54.424;18.456;2023-08-12T01:22:40;9.13;;;3.87;;
53203;SDS011;39086;54.424;18.456;2023-08-12T01:23:44;5.07;;;3.80;;
53203;SDS011;39086;54.424;18.456;2023-08-12T01:24:47;10.60;;;3.60;;
53203;SDS011;39086;54.424;18.456;2023-08-12T01:25:50;8.13;;;3.70;;
53203;SDS011;39086;54.424;18.456;2023-08-12T01:26:53;7.70;;;3.87;;
53203;SDS011;39086;54.424;18.456;2023-08-12T01:27:56;9.27;;;4.33;;
53203;SDS011;39086;54.424;18.456;2023-08-12T01:29:00;12.37;;;4.17;;
53203;SDS011;39086;54.424;18.456;2023-08-12T01:30:02;6.83;;;4.00;;
53203;SDS011;39086;54.424;18.456;2023-08-12T01:31:08;9.63;;;4.20;;
53203;SDS011;39086;54.424;18.456;2023-08-12T01:32:14;8.43;;;4.30;;
53203;SDS011;39086;54.424;18.456;2023-08-12T01:33:21;9.43;;;4.10;;
53203;SDS011;39086;54.424;18.456;2023-08-12T01:34:28;11.70;;;4.47;;
53203;SDS011;39086;54.424;18.456;2023-08-12T01:35:35;6.37;;;3.93;;
53203;SDS011;39086;54.424;18.456;2023-08-12T01:36:38;7.33;;;4.47;;
53203;SDS011;39086;54.424;18.456;2023-08-12T01:37:43;7.33;;;3.93;;
53203;SDS011;39086;54.424;18.456;2023-08-12T01:38:47;13.00;;;4.13;;
53203;SDS011;39086;54.424;18.456;2023-08-12T01:39:52;9.63;;;4.33;;
53203;SDS011;39086;54.424;18.456;2023-08-12T01:40:54;10.73;;;4.57;;
53203;SDS011;39086;54.424;18.456;2023-08-12T01:41:57;11.03;;;4.23;;
53203;SDS011;39086;54.424;18.456;2023-08-12T01:43:00;5.60;;;4.00;;
53203;SDS011;39086;54.424;18.456;2023-08-12T01:44:04;8.57;;;4.30;;
53203;SDS011;39086;54.424;18.456;2023-08-12T01:45:08;6.13;;;3.72;;
53203;SDS011;39086;54.424;18.456;2023-08-12T01:46:10;10.77;;;4.30;;
53203;SDS011;39086;54.424;18.456;2023-08-12T01:47:14;7.70;;;3.80;;
53203;SDS011;39086;54.424;18.456;2023-08-12T01:48:16;11.97;;;4.47;;
53203;SDS011;39086;54.424;18.456;2023-08-12T01:49:21;5.27;;;3.77;;
53203;SDS011;39086;54.424;18.456;2023-08-12T01:50:25;8.63;;;3.77;;
53203;SDS011;39086;54.424;18.456;2023-08-12T01:51:28;5.17;;;3.67;;
53203;SDS011;39086;54.424;18.456;2023-08-12T01:52:32;7.03;;;3.70;;
53203;SDS011;39086;54.424;18.456;2023-08-12T01:53:34;6.30;;;3.80;;
53203;SDS011;39086;54.424;18.456;2023-08-12T01:54:39;6.30;;;3.83;;
53203;SDS011;39086;54.424;18.456;2023-08-12T01:55:42;5.13;;;3.70;;
53203;SDS011;39086;54.424;18.456;2023-08-12T01:56:46;7.93;;;3.80;;
53203;SDS011;39086;54.424;18.456;2023-08-12T01:57:49;7.70;;;3.77;;
53203;SDS011;39086;54.424;18.456;2023-08-12T01:58:52;5.93;;;3.53;;
53203;SDS011;39086;54.424;18.456;2023-08-12T01:59:54;7.57;;;3.65;;
53203;SDS011;39086;54.424;18.456;2023-08-12T02:00:58;6.10;;;4.00;;
53203;SDS011;39086;54.424;18.456;2023-08-12T02:02:00;5.67;;;3.37;;
53203;SDS011;39086;54.424;18.456;2023-08-12T02:03:04;6.00;;;4.10;;
53203;SDS011;39086;54.424;18.456;2023-08-12T02:04:06;6.07;;;4.03;;
53203;SDS011;39086;54.424;18.456;2023-08-12T02:05:10;9.18;;;4.30;;
53203;SDS011;39086;54.424;18.456;2023-08-12T02:06:12;8.30;;;4.30;;
53203;SDS011;39086;54.424;18.456;2023-08-12T02:07:15;9.27;;;3.87;;
53203;SDS011;39086;54.424;18.456;2023-08-12T02:08:18;7.68;;;3.95;;
53203;SDS011;39086;54.424;18.456;2023-08-12T02:09:21;7.47;;;4.25;;
53203;SDS011;39086;54.424;18.456;2023-08-12T02:10:25;7.27;;;4.27;;
53203;SDS011;39086;54.424;18.456;2023-08-12T02:11:28;7.53;;;4.10;;
53203;SDS011;39086;54.424;18.456;2023-08-12T02:12:31;7.50;;;4.00;;
53203;SDS011;39086;54.424;18.456;2023-08-12T02:13:34;5.93;;;4.10;;
53203;SDS011;39086;54.424;18.456;2023-08-12T02:14:37;6.83;;;4.33;;
53203;SDS011;39086;54.424;18.456;2023-08-12T02:15:40;8.47;;;3.93;;
53203;SDS011;39086;54.424;18.456;2023-08-12T02:16:42;5.17;;;4.20;;
53203;SDS011;39086;54.424;18.456;2023-08-12T02:17:46;7.90;;;3.92;;
53203;SDS011;39086;54.424;18.456;2023-08-12T02:18:48;6.47;;;3.93;;
53203;SDS011;39086;54.424;18.456;2023-08-12T02:19:51;6.40;;;3.63;;
53203;SDS011;39086;54.424;18.456;2023-08-12T02:20:54;9.47;;;4.10;;
53203;SDS011;39086;54.424;18.456;2023-08-12T02:21:57;7.47;;;4.20;;
53203;SDS011;39086;54.424;18.456;2023-08-12T02:23:00;7.20;;;4.10;;
53203;SDS011;39086;54.424;18.456;2023-08-12T02:24:03;7.17;;;4.00;;
53203;SDS011;39086;54.424;18.456;2023-08-12T02:25:06;12.02;;;4.70;;
53203;SDS011;39086;54.424;18.456;2023-08-12T02:26:09;6.10;;;4.13;;
53203;SDS011;39086;54.424;18.456;2023-08-12T02:27:13;6.33;;;3.83;;
53203;SDS011;39086;54.424;18.456;2023-08-12T02:28:15;5.03;;;3.67;;
53203;SDS011;39086;54.424;18.456;2023-08-12T02:29:18;6.47;;;4.40;;
53203;SDS011;39086;54.424;18.456;2023-08-12T02:30:21;5.55;;;3.95;;
53203;SDS011;39086;54.424;18.456;2023-08-12T02:31:24;6.47;;;3.75;;
53203;SDS011;39086;54.424;18.456;2023-08-12T02:32:27;5.60;;;4.03;;
53203;SDS011;39086;54.424;18.456;2023-08-12T02:33:30;4.45;;;4.03;;
53203;SDS011;39086;54.424;18.456;2023-08-12T02:34:32;7.33;;;4.43;;
53203;SDS011;39086;54.424;18.456;2023-08-12T02:35:36;6.20;;;3.90;;
53203;SDS011;39086;54.424;18.456;2023-08-12T02:36:38;7.55;;;4.80;;
53203;SDS011;39086;54.424;18.456;2023-08-12T02:37:41;7.10;;;4.30;;
53203;SDS011;39086;54.424;18.456;2023-08-12T02:38:44;7.35;;;4.90;;
53203;SDS011;39086;54.424;18.456;2023-08-12T02:39:47;5.55;;;4.25;;
53203;SDS011;39086;54.424;18.456;2023-08-12T02:40:50;7.13;;;4.22;;
53203;SDS011;39086;54.424;18.456;2023-08-12T02:41:54;6.60;;;4.80;;
53203;SDS011;39086;54.424;18.456;2023-08-12T02:42:57;6.38;;;4.03;;
53203;SDS011;39086;54.424;18.456;2023-08-12T02:44:00;6.47;;;4.20;;
53203;SDS011;39086;54.424;18.456;2023-08-12T02:45:03;4.60;;;4.13;;
53203;SDS011;39086;54.424;18.456;2023-08-12T02:46:06;6.75;;;4.07;;
53203;SDS011;39086;54.424;18.456;2023-08-12T02:47:09;6.20;;;4.27;;
53203;SDS011;39086;54.424;18.456;2023-08-12T02:48:12;4.68;;;4.22;;
53203;SDS011;39086;54.424;18.456;2023-08-12T02:49:15;5.78;;;4.38;;
53203;SDS011;39086;54.424;18.456;2023-08-12T02:50:18;4.95;;;4.22;;
53203;SDS011;39086;54.424;18.456;2023-08-12T02:51:21;6.70;;;4.70;;
53203;SDS011;39086;54.424;18.456;2023-08-12T02:52:24;9.70;;;4.80;;
53203;SDS011;39086;54.424;18.456;2023-08-12T02:53:26;6.33;;;4.50;;
53203;SDS011;39086;54.424;18.456;2023-08-12T02:54:30;6.57;;;4.30;;
53203;SDS011;39086;54.424;18.456;2023-08-12T02:55:32;5.33;;;4.47;;
53203;SDS011;39086;54.424;18.456;2023-08-12T02:56:35;6.47;;;4.25;;
53203;SDS011;39086;54.424;18.456;2023-08-12T02:57:39;7.63;;;4.28;;
53203;SDS011;39086;54.424;18.456;2023-08-12T02:58:42;5.43;;;4.10;;
53203;SDS011;39086;54.424;18.456;2023-08-12T02:59:45;10.10;;;4.45;;
53203;SDS011;39086;54.424;18.456;2023-08-12T03:00:48;8.60;;;5.00;;
53203;SDS011;39086;54.424;18.456;2023-08-12T03:01:51;11.63;;;5.05;;
53203;SDS011;39086;54.424;18.456;2023-08-12T03:02:54;9.90;;;4.90;;
53203;SDS011;39086;54.424;18.456;2023-08-12T03:03:56;8.75;;;4.88;;
53203;SDS011;39086;54.424;18.456;2023-08-12T03:05:00;8.38;;;5.03;;
53203;SDS011;39086;54.424;18.456;2023-08-12T03:06:02;9.57;;;5.43;;
53203;SDS011;39086;54.424;18.456;2023-08-12T03:07:06;8.40;;;4.85;;
53203;SDS011;39086;54.424;18.456;2023-08-12T03:08:08;6.95;;;5.00;;
53203;SDS011;39086;54.424;18.456;2023-08-12T03:09:12;7.03;;;4.60;;
53203;SDS011;39086;54.424;18.456;2023-08-12T03:10:17;6.95;;;4.45;;
53203;SDS011;39086;54.424;18.456;2023-08-12T03:11:21;12.73;;;4.90;;
53203;SDS011;39086;54.424;18.456;2023-08-12T03:12:23;9.18;;;5.03;;
53203;SDS011;39086;54.424;18.456;2023-08-12T03:13:28;11.48;;;7.88;;
53203;SDS011;39086;54.424;18.456;2023-08-12T03:14:31;17.40;;;7.68;;
53203;SDS011;39086;54.424;18.456;2023-08-12T03:15:34;15.60;;;7.22;;
53203;SDS011;39086;54.424;18.456;2023-08-12T03:16:36;12.48;;;5.35;;
53203;SDS011;39086;54.424;18.456;2023-08-12T03:17:40;8.32;;;5.00;;
53203;SDS011;39086;54.424;18.456;2023-08-12T03:18:43;8.65;;;4.68;;
53203;SDS011;39086;54.424;18.456;2023-08-12T03:19:46;7.50;;;4.88;;
53203;SDS011;39086;54.424;18.456;2023-08-12T03:20:48;10.23;;;4.88;;
53203;SDS011;39086;54.424;18.456;2023-08-12T03:21:52;10.30;;;4.25;;
53203;SDS011;39086;54.424;18.456;2023-08-12T03:22:54;11.27;;;4.40;;
53203;SDS011;39086;54.424;18.456;2023-08-12T03:23:57;9.45;;;4.55;;
53203;SDS011;39086;54.424;18.456;2023-08-12T03:25:00;8.30;;;4.70;;
53203;SDS011;39086;54.424;18.456;2023-08-12T03:26:03;12.10;;;4.93;;
53203;SDS011;39086;54.424;18.456;2023-08-12T03:27:05;6.25;;;4.55;;
53203;SDS011;39086;54.424;18.456;2023-08-12T03:28:09;7.82;;;4.60;;
53203;SDS011;39086;54.424;18.456;2023-08-12T03:29:13;6.88;;;4.72;;
53203;SDS011;39086;54.424;18.456;2023-08-12T03:30:16;9.60;;;4.47;;
53203;SDS011;39086;54.424;18.456;2023-08-12T03:31:19;7.72;;;4.50;;
53203;SDS011;39086;54.424;18.456;2023-08-12T03:32:22;7.70;;;4.60;;
53203;SDS011;39086;54.424;18.456;2023-08-12T03:33:25;7.40;;;4.50;;
53203;SDS011;39086;54.424;18.456;2023-08-12T03:34:28;10.40;;;4.65;;
53203;SDS011;39086;54.424;18.456;2023-08-12T03:35:30;6.73;;;4.40;;
53203;SDS011;39086;54.424;18.456;2023-08-12T03:36:34;10.85;;;4.90;;
53203;SDS011;39086;54.424;18.456;2023-08-12T03:37:36;8.45;;;4.75;;
53203;SDS011;39086;54.424;18.456;2023-08-12T03:38:40;11.77;;;4.97;;
53203;SDS011;39086;54.424;18.456;2023-08-12T03:39:43;9.52;;;4.68;;
53203;SDS011;39086;54.424;18.456;2023-08-12T03:40:46;11.53;;;4.97;;
53203;SDS011;39086;54.424;18.456;2023-08-12T03:41:48;6.53;;;4.50;;
53203;SDS011;39086;54.424;18.456;2023-08-12T03:42:52;9.27;;;4.60;;
53203;SDS011;39086;54.424;18.456;2023-08-12T03:43:55;5.97;;;4.63;;
53203;SDS011;39086;54.424;18.456;2023-08-12T03:44:59;6.65;;;4.50;;
53203;SDS011;39086;54.424;18.456;2023-08-12T03:46:02;8.80;;;4.50;;
53203;SDS011;39086;54.424;18.456;2023-08-12T03:47:05;9.10;;;4.60;;
53203;SDS011;39086;54.424;18.456;2023-08-12T03:48:07;9.63;;;4.57;;
53203;SDS011;39086;54.424;18.456;2023-08-12T03:49:11;6.90;;;4.43;;
53203;SDS011;39086;54.424;18.456;2023-08-12T03:50:13;7.75;;;4.53;;
53203;SDS011;39086;54.424;18.456;2023-08-12T03:51:17;7.15;;;5.03;;
53203;SDS011;39086;54.424;18.456;2023-08-12T03:52:19;6.78;;;4.32;;
53203;SDS011;39086;54.424;18.456;2023-08-12T03:53:22;5.30;;;4.80;;
53203;SDS011;39086;54.424;18.456;2023-08-12T03:54:25;9.73;;;5.10;;
53203;SDS011;39086;54.424;18.456;2023-08-12T03:55:29;7.13;;;4.97;;
53203;SDS011;39086;54.424;18.456;2023-08-12T03:56:32;9.02;;;4.88;;
53203;SDS011;39086;54.424;18.456;2023-08-12T03:57:35;8.50;;;4.87;;
53203;SDS011;39086;54.424;18.456;2023-08-12T03:58:38;10.57;;;5.47;;
53203;SDS011;39086;54.424;18.456;2023-08-12T03:59:40;9.73;;;5.17;;
53203;SDS011;39086;54.424;18.456;2023-08-12T04:00:45;10.25;;;5.20;;
53203;SDS011;39086;54.424;18.456;2023-08-12T04:01:47;6.05;;;4.70;;
53203;SDS011;39086;54.424;18.456;2023-08-12T04:02:51;7.22;;;4.57;;
53203;SDS011;39086;54.424;18.456;2023-08-12T04:03:53;6.93;;;4.90;;
53203;SDS011;39086;54.424;18.456;2023-08-12T04:04:57;9.60;;;4.93;;
53203;SDS011;39086;54.424;18.456;2023-08-12T04:05:59;8.95;;;5.18;;
53203;SDS011;39086;54.424;18.456;2023-08-12T04:07:02;11.47;;;5.73;;
53203;SDS011;39086;54.424;18.456;2023-08-12T04:08:05;14.43;;;5.35;;
53203;SDS011;39086;54.424;18.456;2023-08-12T04:09:08;11.88;;;5.15;;
53203;SDS011;39086;54.424;18.456;2023-08-12T04:10:10;12.07;;;5.10;;
53203;SDS011;39086;54.424;18.456;2023-08-12T04:11:14;11.18;;;5.07;;
53203;SDS011;39086;54.424;18.456;2023-08-12T04:12:16;11.73;;;5.22;;
53203;SDS011;39086;54.424;18.456;2023-08-12T04:13:19;10.23;;;5.07;;
53203;SDS011;39086;54.424;18.456;2023-08-12T04:14:22;5.90;;;4.90;;
53203;SDS011;39086;54.424;18.456;2023-08-12T04:15:25;8.83;;;5.10;;
53203;SDS011;39086;54.424;18.456;2023-08-12T04:16:29;9.33;;;4.93;;
53203;SDS011;39086;54.424;18.456;2023-08-12T04:17:32;5.97;;;5.30;;
53203;SDS011;39086;54.424;18.456;2023-08-12T04:18:36;10.33;;;4.97;;
53203;SDS011;39086;54.424;18.456;2023-08-12T04:19:38;10.00;;;5.53;;
53203;SDS011;39086;54.424;18.456;2023-08-12T04:20:42;7.70;;;5.00;;
53203;SDS011;39086;54.424;18.456;2023-08-12T04:21:44;6.27;;;5.47;;
53203;SDS011;39086;54.424;18.456;2023-08-12T04:22:48;8.10;;;4.60;;
53203;SDS011;39086;54.424;18.456;2023-08-12T04:23:50;11.35;;;5.28;;
53203;SDS011;39086;54.424;18.456;2023-08-12T04:24:54;5.63;;;4.53;;
53203;SDS011;39086;54.424;18.456;2023-08-12T04:25:56;8.00;;;5.13;;
53203;SDS011;39086;54.424;18.456;2023-08-12T04:26:59;7.50;;;4.67;;
53203;SDS011;39086;54.424;18.456;2023-08-12T04:28:02;8.57;;;5.10;;
53203;SDS011;39086;54.424;18.456;2023-08-12T04:29:06;5.50;;;5.00;;
53203;SDS011;39086;54.424;18.456;2023-08-12T04:30:08;7.70;;;5.30;;
53203;SDS011;39086;54.424;18.456;2023-08-12T04:31:12;8.97;;;5.03;;
53203;SDS011;39086;54.424;18.456;2023-08-12T04:32:15;12.17;;;5.40;;
53203;SDS011;39086;54.424;18.456;2023-08-12T04:33:19;10.20;;;5.47;;
53203;SDS011;39086;54.424;18.456;2023-08-12T04:34:21;12.37;;;5.33;;
53203;SDS011;39086;54.424;18.456;2023-08-12T04:35:24;10.87;;;5.10;;
53203;SDS011;39086;54.424;18.456;2023-08-12T04:36:27;12.23;;;5.40;;
53203;SDS011;39086;54.424;18.456;2023-08-12T04:37:30;11.20;;;5.37;;
53203;SDS011;39086;54.424;18.456;2023-08-12T04:38:33;8.53;;;4.73;;
53203;SDS011;39086;54.424;18.456;2023-08-12T04:39:37;19.20;;;5.57;;
53203;SDS011;39086;54.424;18.456;2023-08-12T04:40:48;15.33;;;5.50;;
53203;SDS011;39086;54.424;18.456;2023-08-12T04:41:51;6.77;;;4.90;;
53203;SDS011;39086;54.424;18.456;2023-08-12T04:42:53;9.10;;;4.80;;
53203;SDS011;39086;54.424;18.456;2023-08-12T04:43:57;11.70;;;5.23;;
53203;SDS011;39086;54.424;18.456;2023-08-12T04:44:59;8.33;;;5.17;;
53203;SDS011;39086;54.424;18.456;2023-08-12T04:46:04;9.80;;;4.57;;
53203;SDS011;39086;54.424;18.456;2023-08-12T04:47:06;9.70;;;4.93;;
53203;SDS011;39086;54.424;18.456;2023-08-12T04:48:12;7.47;;;4.97;;
53203;SDS011;39086;54.424;18.456;2023-08-12T04:49:14;10.77;;;4.70;;
53203;SDS011;39086;54.424;18.456;2023-08-12T04:50:18;12.17;;;4.60;;
53203;SDS011;39086;54.424;18.456;2023-08-12T04:51:20;13.07;;;5.10;;
53203;SDS011;39086;54.424;18.456;2023-08-12T04:52:23;10.83;;;5.10;;
53203;SDS011;39086;54.424;18.456;2023-08-12T04:53:27;8.53;;;4.53;;
53203;SDS011;39086;54.424;18.456;2023-08-12T04:54:30;11.53;;;4.83;;
53203;SDS011;39086;54.424;18.456;2023-08-12T04:55:33;10.40;;;4.60;;
53203;SDS011;39086;54.424;18.456;2023-08-12T04:56:38;14.37;;;5.00;;
53203;SDS011;39086;54.424;18.456;2023-08-12T04:57:40;10.83;;;4.33;;
53203;SDS011;39086;54.424;18.456;2023-08-12T04:58:44;9.60;;;4.37;;
53203;SDS011;39086;54.424;18.456;2023-08-12T04:59:46;10.17;;;4.23;;
53203;SDS011;39086;54.424;18.456;2023-08-12T05:00:49;8.90;;;4.57;;
53203;SDS011;39086;54.424;18.456;2023-08-12T05:01:53;7.73;;;4.00;;
53203;SDS011;39086;54.424;18.456;2023-08-12T05:03:05;8.20;;;4.60;;
53203;SDS011;39086;54.424;18.456;2023-08-12T05:04:07;9.47;;;5.10;;
53203;SDS011;39086;54.424;18.456;2023-08-12T05:05:10;10.80;;;5.00;;
53203;SDS011;39086;54.424;18.456;2023-08-12T05:06:13;7.33;;;4.73;;
53203;SDS011;39086;54.424;18.456;2023-08-12T05:07:16;7.50;;;4.77;;
53203;SDS011;39086;54.424;18.456;2023-08-12T05:08:19;8.13;;;5.13;;
53203;SDS011;39086;54.424;18.456;2023-08-12T05:09:22;9.20;;;4.70;;
53203;SDS011;39086;54.424;18.456;2023-08-12T05:10:24;9.17;;;5.20;;
53203;SDS011;39086;54.424;18.456;2023-08-12T05:11:28;11.13;;;4.67;;
53203;SDS011;39086;54.424;18.456;2023-08-12T05:12:31;18.13;;;5.40;;
53203;SDS011;39086;54.424;18.456;2023-08-12T05:13:35;9.87;;;4.97;;
53203;SDS011;39086;54.424;18.456;2023-08-12T05:14:38;5.93;;;4.70;;
53203;SDS011;39086;54.424;18.456;2023-08-12T05:15:44;10.53;;;4.67;;
53203;SDS011;39086;54.424;18.456;2023-08-12T05:16:47;6.30;;;4.23;;
53203;SDS011;39086;54.424;18.456;2023-08-12T05:17:50;9.57;;;4.83;;
53203;SDS011;39086;54.424;18.456;2023-08-12T05:18:52;11.63;;;4.57;;
53203;SDS011;39086;54.424;18.456;2023-08-12T05:19:56;5.80;;;3.97;;
53203;SDS011;39086;54.424;18.456;2023-08-12T05:20:58;6.50;;;4.40;;
53203;SDS011;39086;54.424;18.456;2023-08-12T05:22:01;9.23;;;4.30;;
53203;SDS011;39086;54.424;18.456;2023-08-12T05:23:04;12.73;;;4.40;;
53203;SDS011;39086;54.424;18.456;2023-08-12T05:24:08;7.93;;;4.53;;
53203;SDS011;39086;54.424;18.456;2023-08-12T05:25:12;9.33;;;4.23;;
53203;SDS011;39086;54.424;18.456;2023-08-12T05:26:16;8.13;;;4.33;;
53203;SDS011;39086;54.424;18.456;2023-08-12T05:27:18;11.37;;;5.17;;
53203;SDS011;39086;54.424;18.456;2023-08-12T05:28:23;10.97;;;4.43;;
53203;SDS011;39086;54.424;18.456;2023-08-12T05:29:25;10.80;;;4.70;;
53203;SDS011;39086;54.424;18.456;2023-08-12T05:30:28;9.00;;;5.03;;
53203;SDS011;39086;54.424;18.456;2023-08-12T05:31:31;15.73;;;5.20;;
53203;SDS011;39086;54.424;18.456;2023-08-12T05:32:34;10.03;;;4.50;;
53203;SDS011;39086;54.424;18.456;2023-08-12T05:33:37;9.87;;;4.83;;
53203;SDS011;39086;54.424;18.456;2023-08-12T05:34:40;7.43;;;4.40;;
53203;SDS011;39086;54.424;18.456;2023-08-12T05:35:42;10.90;;;4.80;;
53203;SDS011;39086;54.424;18.456;2023-08-12T05:36:46;10.83;;;4.93;;
53203;SDS011;39086;54.424;18.456;2023-08-12T05:37:48;10.37;;;4.70;;
53203;SDS011;39086;54.424;18.456;2023-08-12T05:38:51;8.10;;;4.33;;
53203;SDS011;39086;54.424;18.456;2023-08-12T05:39:54;14.40;;;4.60;;
53203;SDS011;39086;54.424;18.456;2023-08-12T05:40:57;8.20;;;4.07;;
53203;SDS011;39086;54.424;18.456;2023-08-12T05:41:59;4.60;;;3.57;;
53203;SDS011;39086;54.424;18.456;2023-08-12T05:43:03;7.13;;;4.37;;
53203;SDS011;39086;54.424;18.456;2023-08-12T05:44:07;9.03;;;4.90;;
53203;SDS011;39086;54.424;18.456;2023-08-12T05:45:10;10.20;;;3.73;;
53203;SDS011;39086;54.424;18.456;2023-08-12T05:46:12;8.73;;;4.10;;
53203;SDS011;39086;54.424;18.456;2023-08-12T05:47:16;6.67;;;3.83;;
53203;SDS011;39086;54.424;18.456;2023-08-12T05:48:18;6.57;;;3.77;;
53203;SDS011;39086;54.424;18.456;2023-08-12T05:49:21;8.17;;;3.93;;
53203;SDS011;39086;54.424;18.456;2023-08-12T05:50:24;4.00;;;3.33;;
53203;SDS011;39086;54.424;18.456;2023-08-12T05:51:27;5.37;;;3.60;;
53203;SDS011;39086;54.424;18.456;2023-08-12T05:52:31;5.53;;;3.50;;
53203;SDS011;39086;54.424;18.456;2023-08-12T05:53:34;5.30;;;3.70;;
53203;SDS011;39086;54.424;18.456;2023-08-12T05:54:36;11.63;;;4.33;;
53203;SDS011;39086;54.424;18.456;2023-08-12T05:55:40;8.20;;;3.60;;
53203;SDS011;39086;54.424;18.456;2023-08-12T05:56:42;12.07;;;3.70;;
53203;SDS011;39086;54.424;18.456;2023-08-12T05:57:46;5.43;;;3.93;;
53203;SDS011;39086;54.424;18.456;2023-08-12T05:58:48;5.77;;;3.87;;
53203;SDS011;39086;54.424;18.456;2023-08-12T05:59:53;7.97;;;4.93;;
53203;SDS011;39086;54.424;18.456;2023-08-12T06:00:55;11.17;;;6.03;;
53203;SDS011;39086;54.424;18.456;2023-08-12T06:01:58;8.30;;;5.00;;
53203;SDS011;39086;54.424;18.456;2023-08-12T06:03:01;8.67;;;5.60;;
53203;SDS011;39086;54.424;18.456;2023-08-12T06:04:05;7.63;;;4.63;;
53203;SDS011;39086;54.424;18.456;2023-08-12T06:05:08;8.33;;;4.63;;
53203;SDS011;39086;54.424;18.456;2023-08-12T06:06:11;5.90;;;4.33;;
53203;SDS011;39086;54.424;18.456;2023-08-12T06:07:13;7.40;;;4.60;;
53203;SDS011;39086;54.424;18.456;2023-08-12T06:08:17;6.53;;;3.77;;
53203;SDS011;39086;54.424;18.456;2023-08-12T06:09:19;5.90;;;3.60;;
53203;SDS011;39086;54.424;18.456;2023-08-12T06:10:22;6.07;;;3.40;;
53203;SDS011;39086;54.424;18.456;2023-08-12T06:11:25;9.83;;;3.63;;
53203;SDS011;39086;54.424;18.456;2023-08-12T06:12:28;4.77;;;3.67;;
53203;SDS011;39086;54.424;18.456;2023-08-12T06:13:31;10.47;;;3.03;;